sensor_id;sensor_type;location;lat;lon;timestamp;P1;durP1;ratioP1;P2;durP2;ratioP2
15820;SDS011;8011;51.650;7.240;2022-10-30T04:01:19;10.20;;;4.63;;
15820;SDS011;8011;51.650;7.240;2022-10-30T04:03:45;8.60;;;4.67;;
15820;SDS011;8011;51.650;7.240;2022-10-30T04:06:11;9.40;;;4.63;;
15820;SDS011;8011;51.650;7.240;2022-10-30T04:08:37;10.07;;;4.23;;
15820;SDS011;8011;51.650;7.240;2022-10-30T04:11:02;6.83;;;4.47;;
15820;SDS011;8011;51.650;7.240;2022-10-30T04:13:28;7.87;;;4.57;;
15820;SDS011;8011;51.650;7.240;2022-10-30T04:15:55;6.80;;;3.93;;
15820;SDS011;8011;51.650;7.240;2022-10-30T04:18:20;6.57;;;4.00;;
15820;SDS011;8011;51.650;7.240;2022-10-30T04:20:47;7.13;;;4.13;;
15820;SDS011;8011;51.650;7.240;2022-10-30T04:23:13;8.53;;;4.50;;
15820;SDS011;8011;51.650;7.240;2022-10-30T04:25:41;9.07;;;4.47;;
15820;SDS011;8011;51.650;7.240;2022-10-30T04:31:01;8.00;;;4.30;;
15820;SDS011;8011;51.650;7.240;2022-10-30T04:33:27;7.93;;;4.53;;
15820;SDS011;8011;51.650;7.240;2022-10-30T04:35:53;6.83;;;4.03;;
15820;SDS011;8011;51.650;7.240;2022-10-30T04:38:18;8.80;;;4.37;;
15820;SDS011;8011;51.650;7.240;2022-10-30T04:40:44;8.27;;;4.27;;
15820;SDS011;8011;51.650;7.240;2022-10-30T04:43:10;6.70;;;4.50;;
15820;SDS011;8011;51.650;7.240;2022-10-30T04:45:37;7.70;;;4.60;;
15820;SDS011;8011;51.650;7.240;2022-10-30T04:50:34;7.07;;;4.43;;
15820;SDS011;8011;51.650;7.240;2022-10-30T04:53:01;8.40;;;4.53;;
15820;SDS011;8011;51.650;7.240;2022-10-30T04:55:28;5.90;;;4.20;;
15820;SDS011;8011;51.650;7.240;2022-10-30T04:57:55;7.87;;;4.10;;
15820;SDS011;8011;51.650;7.240;2022-10-30T05:00:22;7.10;;;4.57;;
15820;SDS011;8011;51.650;7.240;2022-10-30T05:02:48;5.13;;;3.77;;
15820;SDS011;8011;51.650;7.240;2022-10-30T05:05:14;5.37;;;4.03;;
15820;SDS011;8011;51.650;7.240;2022-10-30T05:07:39;5.23;;;4.00;;
15820;SDS011;8011;51.650;7.240;2022-10-30T05:10:05;7.20;;;3.77;;
15820;SDS011;8011;51.650;7.240;2022-10-30T05:12:31;8.73;;;4.23;;
15820;SDS011;8011;51.650;7.240;2022-10-30T05:14:56;7.73;;;4.07;;
15820;SDS011;8011;51.650;7.240;2022-10-30T05:17:22;5.63;;;4.27;;
15820;SDS011;8011;51.650;7.240;2022-10-30T05:19:48;9.57;;;4.23;;
15820;SDS011;8011;51.650;7.240;2022-10-30T05:22:13;5.73;;;4.17;;
15820;SDS011;8011;51.650;7.240;2022-10-30T05:24:39;6.83;;;4.53;;
15820;SDS011;8011;51.650;7.240;2022-10-30T05:27:04;7.97;;;4.17;;
15820;SDS011;8011;51.650;7.240;2022-10-30T05:29:30;7.37;;;4.43;;
15820;SDS011;8011;51.650;7.240;2022-10-30T05:31:56;8.87;;;4.40;;
15820;SDS011;8011;51.650;7.240;2022-10-30T05:34:21;5.67;;;3.93;;
15820;SDS011;8011;51.650;7.240;2022-10-30T05:36:47;6.83;;;3.97;;
15820;SDS011;8011;51.650;7.240;2022-10-30T05:39:12;5.67;;;4.00;;
15820;SDS011;8011;51.650;7.240;2022-10-30T05:41:38;6.60;;;3.83;;
15820;SDS011;8011;51.650;7.240;2022-10-30T05:44:04;5.47;;;3.77;;
15820;SDS011;8011;51.650;7.240;2022-10-30T05:46:29;6.27;;;4.67;;
15820;SDS011;8011;51.650;7.240;2022-10-30T05:48:55;5.43;;;4.23;;
15820;SDS011;8011;51.650;7.240;2022-10-30T05:51:21;7.60;;;4.80;;
15820;SDS011;8011;51.650;7.240;2022-10-30T05:53:47;6.07;;;4.20;;
15820;SDS011;8011;51.650;7.240;2022-10-30T05:56:13;7.53;;;4.30;;
15820;SDS011;8011;51.650;7.240;2022-10-30T05:58:39;7.97;;;4.40;;
15820;SDS011;8011;51.650;7.240;2022-10-30T06:01:05;6.87;;;4.33;;
15820;SDS011;8011;51.650;7.240;2022-10-30T06:03:31;6.67;;;4.30;;
15820;SDS011;8011;51.650;7.240;2022-10-30T06:05:57;7.03;;;4.50;;
15820;SDS011;8011;51.650;7.240;2022-10-30T06:08:23;5.83;;;4.40;;
15820;SDS011;8011;51.650;7.240;2022-10-30T06:10:48;6.80;;;4.40;;
15820;SDS011;8011;51.650;7.240;2022-10-30T06:13:14;6.10;;;4.10;;
15820;SDS011;8011;51.650;7.240;2022-10-30T06:15:40;6.63;;;4.13;;
15820;SDS011;8011;51.650;7.240;2022-10-30T06:18:05;6.17;;;4.30;;
15820;SDS011;8011;51.650;7.240;2022-10-30T06:20:31;7.53;;;4.40;;
15820;SDS011;8011;51.650;7.240;2022-10-30T06:23:04;7.70;;;4.27;;
15820;SDS011;8011;51.650;7.240;2022-10-30T06:25:32;8.80;;;4.27;;
15820;SDS011;8011;51.650;7.240;2022-10-30T06:27:59;7.83;;;4.57;;
15820;SDS011;8011;51.650;7.240;2022-10-30T06:30:25;7.83;;;4.40;;
15820;SDS011;8011;51.650;7.240;2022-10-30T06:32:58;5.57;;;4.20;;
15820;SDS011;8011;51.650;7.240;2022-10-30T06:35:24;7.57;;;4.23;;
15820;SDS011;8011;51.650;7.240;2022-10-30T06:37:50;6.53;;;4.27;;
15820;SDS011;8011;51.650;7.240;2022-10-30T06:40:17;6.13;;;4.60;;
15820;SDS011;8011;51.650;7.240;2022-10-30T06:42:44;6.90;;;4.03;;
15820;SDS011;8011;51.650;7.240;2022-10-30T06:45:11;7.57;;;4.37;;
15820;SDS011;8011;51.650;7.240;2022-10-30T06:47:38;11.90;;;5.53;;
15820;SDS011;8011;51.650;7.240;2022-10-30T06:50:04;9.30;;;4.53;;
15820;SDS011;8011;51.650;7.240;2022-10-30T06:52:31;6.63;;;4.20;;
15820;SDS011;8011;51.650;7.240;2022-10-30T06:54:57;7.13;;;4.23;;
15820;SDS011;8011;51.650;7.240;2022-10-30T06:57:22;6.27;;;4.00;;
15820;SDS011;8011;51.650;7.240;2022-10-30T06:59:48;8.23;;;4.50;;
15820;SDS011;8011;51.650;7.240;2022-10-30T07:02:14;7.67;;;4.50;;
15820;SDS011;8011;51.650;7.240;2022-10-30T07:04:40;8.10;;;4.40;;
15820;SDS011;8011;51.650;7.240;2022-10-30T07:07:05;9.17;;;4.30;;
15820;SDS011;8011;51.650;7.240;2022-10-30T07:09:31;7.43;;;4.30;;
15820;SDS011;8011;51.650;7.240;2022-10-30T07:11:56;8.27;;;4.20;;
15820;SDS011;8011;51.650;7.240;2022-10-30T07:14:22;8.10;;;4.20;;
15820;SDS011;8011;51.650;7.240;2022-10-30T07:16:48;6.63;;;4.23;;
15820;SDS011;8011;51.650;7.240;2022-10-30T07:19:14;6.53;;;4.70;;
15820;SDS011;8011;51.650;7.240;2022-10-30T07:21:39;9.57;;;4.90;;
15820;SDS011;8011;51.650;7.240;2022-10-30T07:24:05;6.17;;;4.63;;
15820;SDS011;8011;51.650;7.240;2022-10-30T07:26:31;8.30;;;4.20;;
15820;SDS011;8011;51.650;7.240;2022-10-30T07:29:01;7.00;;;4.30;;
15820;SDS011;8011;51.650;7.240;2022-10-30T07:31:28;7.50;;;4.83;;
15820;SDS011;8011;51.650;7.240;2022-10-30T07:33:54;7.70;;;4.90;;
15820;SDS011;8011;51.650;7.240;2022-10-30T07:36:19;8.00;;;5.50;;
15820;SDS011;8011;51.650;7.240;2022-10-30T07:38:49;10.10;;;4.97;;
15820;SDS011;8011;51.650;7.240;2022-10-30T07:41:19;9.93;;;4.80;;
15820;SDS011;8011;51.650;7.240;2022-10-30T07:44:01;8.43;;;5.27;;
15820;SDS011;8011;51.650;7.240;2022-10-30T07:46:27;7.33;;;5.40;;
15820;SDS011;8011;51.650;7.240;2022-10-30T07:48:53;11.27;;;5.13;;
15820;SDS011;8011;51.650;7.240;2022-10-30T07:51:22;10.27;;;5.50;;
15820;SDS011;8011;51.650;7.240;2022-10-30T07:53:53;8.70;;;5.37;;
15820;SDS011;8011;51.650;7.240;2022-10-30T07:56:25;9.73;;;5.10;;
15820;SDS011;8011;51.650;7.240;2022-10-30T07:58:51;9.73;;;6.17;;
15820;SDS011;8011;51.650;7.240;2022-10-30T08:01:16;9.00;;;5.40;;
15820;SDS011;8011;51.650;7.240;2022-10-30T08:03:47;8.83;;;5.30;;
15820;SDS011;8011;51.650;7.240;2022-10-30T08:06:13;8.73;;;5.60;;
15820;SDS011;8011;51.650;7.240;2022-10-30T08:08:38;10.47;;;6.63;;
15820;SDS011;8011;51.650;7.240;2022-10-30T08:11:04;8.47;;;5.57;;
15820;SDS011;8011;51.650;7.240;2022-10-30T08:13:40;9.90;;;6.30;;
15820;SDS011;8011;51.650;7.240;2022-10-30T08:16:06;9.17;;;5.93;;
15820;SDS011;8011;51.650;7.240;2022-10-30T08:18:31;9.43;;;5.53;;
15820;SDS011;8011;51.650;7.240;2022-10-30T08:20:57;7.63;;;5.60;;
15820;SDS011;8011;51.650;7.240;2022-10-30T08:23:24;8.07;;;5.60;;
15820;SDS011;8011;51.650;7.240;2022-10-30T08:25:50;9.13;;;5.80;;
15820;SDS011;8011;51.650;7.240;2022-10-30T08:28:15;7.33;;;5.30;;
15820;SDS011;8011;51.650;7.240;2022-10-30T08:30:41;11.07;;;5.53;;
15820;SDS011;8011;51.650;7.240;2022-10-30T08:33:09;16.90;;;6.50;;
15820;SDS011;8011;51.650;7.240;2022-10-30T08:35:37;9.80;;;6.00;;
15820;SDS011;8011;51.650;7.240;2022-10-30T08:38:03;9.13;;;5.83;;
15820;SDS011;8011;51.650;7.240;2022-10-30T08:40:28;10.00;;;6.20;;
15820;SDS011;8011;51.650;7.240;2022-10-30T08:42:55;12.77;;;6.50;;
15820;SDS011;8011;51.650;7.240;2022-10-30T08:45:22;11.53;;;5.93;;
15820;SDS011;8011;51.650;7.240;2022-10-30T08:47:58;9.83;;;5.37;;
15820;SDS011;8011;51.650;7.240;2022-10-30T08:50:27;10.13;;;5.30;;
15820;SDS011;8011;51.650;7.240;2022-10-30T08:52:54;11.87;;;5.90;;
15820;SDS011;8011;51.650;7.240;2022-10-30T08:55:20;9.80;;;5.47;;
15820;SDS011;8011;51.650;7.240;2022-10-30T08:57:45;8.77;;;4.97;;
15820;SDS011;8011;51.650;7.240;2022-10-30T09:00:11;12.33;;;5.70;;
15820;SDS011;8011;51.650;7.240;2022-10-30T09:02:37;10.10;;;5.67;;
15820;SDS011;8011;51.650;7.240;2022-10-30T09:05:06;9.73;;;4.97;;
15820;SDS011;8011;51.650;7.240;2022-10-30T09:07:32;9.33;;;5.23;;
15820;SDS011;8011;51.650;7.240;2022-10-30T09:09:57;7.77;;;4.70;;
15820;SDS011;8011;51.650;7.240;2022-10-30T09:12:23;11.17;;;5.23;;
15820;SDS011;8011;51.650;7.240;2022-10-30T09:14:49;9.33;;;5.70;;
15820;SDS011;8011;51.650;7.240;2022-10-30T09:17:14;8.87;;;4.73;;
15820;SDS011;8011;51.650;7.240;2022-10-30T09:19:40;7.17;;;4.83;;
15820;SDS011;8011;51.650;7.240;2022-10-30T09:22:06;12.77;;;5.00;;
15820;SDS011;8011;51.650;7.240;2022-10-30T09:24:32;7.17;;;4.50;;
15820;SDS011;8011;51.650;7.240;2022-10-30T09:26:57;7.43;;;4.83;;
15820;SDS011;8011;51.650;7.240;2022-10-30T09:29:23;11.33;;;4.97;;
15820;SDS011;8011;51.650;7.240;2022-10-30T09:31:49;9.50;;;5.20;;
15820;SDS011;8011;51.650;7.240;2022-10-30T09:34:14;7.77;;;4.97;;
15820;SDS011;8011;51.650;7.240;2022-10-30T09:36:40;9.03;;;4.83;;
15820;SDS011;8011;51.650;7.240;2022-10-30T09:39:08;9.73;;;4.33;;
15820;SDS011;8011;51.650;7.240;2022-10-30T09:44:18;10.37;;;4.13;;
15820;SDS011;8011;51.650;7.240;2022-10-30T09:54:55;10.50;;;4.27;;
15820;SDS011;8011;51.650;7.240;2022-10-30T10:00:10;7.07;;;4.30;;
15820;SDS011;8011;51.650;7.240;2022-10-30T10:05:53;8.33;;;4.37;;
15820;SDS011;8011;51.650;7.240;2022-10-30T10:08:39;9.30;;;4.27;;
15820;SDS011;8011;51.650;7.240;2022-10-30T10:11:12;9.40;;;4.17;;
15820;SDS011;8011;51.650;7.240;2022-10-30T10:13:59;7.73;;;4.17;;
15820;SDS011;8011;51.650;7.240;2022-10-30T10:16:38;6.53;;;3.80;;
15820;SDS011;8011;51.650;7.240;2022-10-30T10:21:39;8.20;;;3.73;;
15820;SDS011;8011;51.650;7.240;2022-10-30T10:24:27;8.73;;;3.73;;
15820;SDS011;8011;51.650;7.240;2022-10-30T10:27:13;8.30;;;4.53;;
15820;SDS011;8011;51.650;7.240;2022-10-30T10:38:10;6.83;;;3.57;;
15820;SDS011;8011;51.650;7.240;2022-10-30T10:43:40;7.70;;;3.90;;
15820;SDS011;8011;51.650;7.240;2022-10-30T10:49:00;5.90;;;3.37;;
15820;SDS011;8011;51.650;7.240;2022-10-30T10:51:37;9.67;;;4.17;;
15820;SDS011;8011;51.650;7.240;2022-10-30T10:54:15;8.70;;;3.73;;
15820;SDS011;8011;51.650;7.240;2022-10-30T10:56:46;11.67;;;3.87;;
15820;SDS011;8011;51.650;7.240;2022-10-30T10:59:21;7.33;;;3.40;;
15820;SDS011;8011;51.650;7.240;2022-10-30T11:01:57;7.30;;;3.17;;
15820;SDS011;8011;51.650;7.240;2022-10-30T11:07:16;8.83;;;3.53;;
15820;SDS011;8011;51.650;7.240;2022-10-30T11:09:43;10.83;;;3.47;;
15820;SDS011;8011;51.650;7.240;2022-10-30T11:12:11;10.17;;;3.60;;
15820;SDS011;8011;51.650;7.240;2022-10-30T11:14:37;9.70;;;3.90;;
15820;SDS011;8011;51.650;7.240;2022-10-30T11:17:04;11.63;;;3.70;;
15820;SDS011;8011;51.650;7.240;2022-10-30T11:19:41;5.30;;;3.50;;
15820;SDS011;8011;51.650;7.240;2022-10-30T11:24:54;10.33;;;3.77;;
15820;SDS011;8011;51.650;7.240;2022-10-30T11:29:53;7.60;;;3.40;;
15820;SDS011;8011;51.650;7.240;2022-10-30T11:32:19;7.17;;;2.90;;
15820;SDS011;8011;51.650;7.240;2022-10-30T11:34:59;12.97;;;4.17;;
15820;SDS011;8011;51.650;7.240;2022-10-30T11:37:38;7.93;;;3.50;;
15820;SDS011;8011;51.650;7.240;2022-10-30T11:42:34;8.93;;;3.60;;
15820;SDS011;8011;51.650;7.240;2022-10-30T11:45:01;5.33;;;2.97;;
15820;SDS011;8011;51.650;7.240;2022-10-30T11:47:32;8.03;;;3.37;;
15820;SDS011;8011;51.650;7.240;2022-10-30T11:50:00;9.17;;;3.40;;
15820;SDS011;8011;51.650;7.240;2022-10-30T11:52:46;9.90;;;3.70;;
15820;SDS011;8011;51.650;7.240;2022-10-30T11:57:51;7.77;;;3.40;;
15820;SDS011;8011;51.650;7.240;2022-10-30T12:00:20;9.40;;;3.30;;
15820;SDS011;8011;51.650;7.240;2022-10-30T12:02:49;4.63;;;2.90;;
15820;SDS011;8011;51.650;7.240;2022-10-30T12:05:27;7.13;;;3.13;;
15820;SDS011;8011;51.650;7.240;2022-10-30T12:10:34;7.60;;;3.10;;
15820;SDS011;8011;51.650;7.240;2022-10-30T12:13:18;7.30;;;3.43;;
15820;SDS011;8011;51.650;7.240;2022-10-30T12:15:46;4.63;;;2.87;;
15820;SDS011;8011;51.650;7.240;2022-10-30T12:18:16;11.47;;;3.23;;
15820;SDS011;8011;51.650;7.240;2022-10-30T12:20:45;5.90;;;3.23;;
15820;SDS011;8011;51.650;7.240;2022-10-30T12:23:17;6.60;;;3.50;;
15820;SDS011;8011;51.650;7.240;2022-10-30T12:25:46;9.83;;;3.00;;
15820;SDS011;8011;51.650;7.240;2022-10-30T12:28:14;6.10;;;2.67;;
15820;SDS011;8011;51.650;7.240;2022-10-30T12:30:56;4.93;;;2.87;;
15820;SDS011;8011;51.650;7.240;2022-10-30T12:33:36;6.63;;;3.13;;
15820;SDS011;8011;51.650;7.240;2022-10-30T12:36:10;6.57;;;3.00;;
15820;SDS011;8011;51.650;7.240;2022-10-30T12:43:55;8.33;;;3.23;;
15820;SDS011;8011;51.650;7.240;2022-10-30T12:54:51;6.67;;;2.97;;
15820;SDS011;8011;51.650;7.240;2022-10-30T12:57:26;5.13;;;2.87;;
15820;SDS011;8011;51.650;7.240;2022-10-30T13:00:02;6.50;;;2.87;;
15820;SDS011;8011;51.650;7.240;2022-10-30T13:05:04;7.53;;;3.00;;
15820;SDS011;8011;51.650;7.240;2022-10-30T13:08:06;10.93;;;3.37;;
15820;SDS011;8011;51.650;7.240;2022-10-30T13:10:37;7.90;;;3.10;;
15820;SDS011;8011;51.650;7.240;2022-10-30T13:13:24;6.93;;;2.93;;
15820;SDS011;8011;51.650;7.240;2022-10-30T13:15:56;6.87;;;3.40;;
15820;SDS011;8011;51.650;7.240;2022-10-30T13:18:25;7.50;;;2.93;;
15820;SDS011;8011;51.650;7.240;2022-10-30T13:39:15;7.80;;;3.37;;
15820;SDS011;8011;51.650;7.240;2022-10-30T13:41:59;8.77;;;2.83;;
15820;SDS011;8011;51.650;7.240;2022-10-30T13:53:16;8.73;;;3.27;;
15820;SDS011;8011;51.650;7.240;2022-10-30T13:55:45;7.67;;;2.93;;
15820;SDS011;8011;51.650;7.240;2022-10-30T13:58:22;9.87;;;3.20;;
15820;SDS011;8011;51.650;7.240;2022-10-30T14:03:52;9.97;;;3.53;;
15820;SDS011;8011;51.650;7.240;2022-10-30T14:06:49;6.77;;;2.80;;
15820;SDS011;8011;51.650;7.240;2022-10-30T14:11:48;7.80;;;2.73;;
15820;SDS011;8011;51.650;7.240;2022-10-30T14:22:29;7.93;;;3.17;;
15820;SDS011;8011;51.650;7.240;2022-10-30T14:24:56;6.97;;;3.60;;
15820;SDS011;8011;51.650;7.240;2022-10-30T14:27:30;6.90;;;3.30;;
15820;SDS011;8011;51.650;7.240;2022-10-30T14:29:57;6.70;;;2.93;;
15820;SDS011;8011;51.650;7.240;2022-10-30T14:39:48;7.50;;;2.97;;
15820;SDS011;8011;51.650;7.240;2022-10-30T14:45:24;7.23;;;3.10;;
15820;SDS011;8011;51.650;7.240;2022-10-30T14:47:54;7.20;;;2.90;;
15820;SDS011;8011;51.650;7.240;2022-10-30T14:55:54;8.23;;;3.83;;
15820;SDS011;8011;51.650;7.240;2022-10-30T14:58:40;10.00;;;4.30;;
15820;SDS011;8011;51.650;7.240;2022-10-30T15:03:52;8.73;;;4.97;;
15820;SDS011;8011;51.650;7.240;2022-10-30T15:06:29;9.73;;;4.60;;
15820;SDS011;8011;51.650;7.240;2022-10-30T15:15:16;9.70;;;3.97;;
15820;SDS011;8011;51.650;7.240;2022-10-30T15:17:45;7.93;;;3.70;;
15820;SDS011;8011;51.650;7.240;2022-10-30T15:20:14;6.03;;;3.83;;
15820;SDS011;8011;51.650;7.240;2022-10-30T15:22:46;6.27;;;3.80;;
15820;SDS011;8011;51.650;7.240;2022-10-30T15:25:15;5.63;;;3.87;;
15820;SDS011;8011;51.650;7.240;2022-10-30T15:27:44;5.93;;;3.93;;
15820;SDS011;8011;51.650;7.240;2022-10-30T15:30:17;10.10;;;4.57;;
15820;SDS011;8011;51.650;7.240;2022-10-30T15:32:46;6.53;;;4.00;;
15820;SDS011;8011;51.650;7.240;2022-10-30T15:35:19;6.27;;;3.73;;
15820;SDS011;8011;51.650;7.240;2022-10-30T15:40:21;6.53;;;3.83;;
15820;SDS011;8011;51.650;7.240;2022-10-30T15:42:47;5.50;;;3.63;;
15820;SDS011;8011;51.650;7.240;2022-10-30T15:45:15;6.30;;;3.67;;
15820;SDS011;8011;51.650;7.240;2022-10-30T15:47:56;7.00;;;4.07;;
15820;SDS011;8011;51.650;7.240;2022-10-30T15:50:29;6.57;;;4.20;;
15820;SDS011;8011;51.650;7.240;2022-10-30T15:52:56;7.33;;;3.70;;
15820;SDS011;8011;51.650;7.240;2022-10-30T15:55:27;5.73;;;4.03;;
15820;SDS011;8011;51.650;7.240;2022-10-30T15:57:57;7.17;;;4.77;;
15820;SDS011;8011;51.650;7.240;2022-10-30T16:00:27;8.20;;;3.77;;
15820;SDS011;8011;51.650;7.240;2022-10-30T16:03:05;5.20;;;3.57;;
15820;SDS011;8011;51.650;7.240;2022-10-30T16:05:40;5.60;;;3.20;;
15820;SDS011;8011;51.650;7.240;2022-10-30T16:08:25;8.90;;;3.70;;
15820;SDS011;8011;51.650;7.240;2022-10-30T16:10:53;8.93;;;4.27;;
15820;SDS011;8011;51.650;7.240;2022-10-30T16:13:29;8.57;;;3.30;;
15820;SDS011;8011;51.650;7.240;2022-10-30T16:15:55;8.63;;;3.93;;
15820;SDS011;8011;51.650;7.240;2022-10-30T16:18:22;7.47;;;3.93;;
15820;SDS011;8011;51.650;7.240;2022-10-30T16:20:55;7.47;;;3.67;;
15820;SDS011;8011;51.650;7.240;2022-10-30T16:23:26;6.17;;;4.10;;
15820;SDS011;8011;51.650;7.240;2022-10-30T16:25:57;7.17;;;3.80;;
15820;SDS011;8011;51.650;7.240;2022-10-30T16:28:30;6.80;;;3.97;;
15820;SDS011;8011;51.650;7.240;2022-10-30T16:31:03;6.70;;;3.87;;
15820;SDS011;8011;51.650;7.240;2022-10-30T16:33:31;8.47;;;4.17;;
15820;SDS011;8011;51.650;7.240;2022-10-30T16:35:59;6.13;;;3.50;;
15820;SDS011;8011;51.650;7.240;2022-10-30T16:38:28;7.00;;;3.60;;
15820;SDS011;8011;51.650;7.240;2022-10-30T16:40:58;9.43;;;3.77;;
15820;SDS011;8011;51.650;7.240;2022-10-30T16:43:26;8.03;;;4.27;;
15820;SDS011;8011;51.650;7.240;2022-10-30T16:46:30;4.93;;;3.53;;
15820;SDS011;8011;51.650;7.240;2022-10-30T16:48:58;6.03;;;3.37;;
15820;SDS011;8011;51.650;7.240;2022-10-30T16:51:27;5.63;;;3.83;;
15820;SDS011;8011;51.650;7.240;2022-10-30T16:53:54;10.10;;;3.77;;
15820;SDS011;8011;51.650;7.240;2022-10-30T16:56:22;7.27;;;3.93;;
15820;SDS011;8011;51.650;7.240;2022-10-30T16:58:48;6.27;;;4.30;;
15820;SDS011;8011;51.650;7.240;2022-10-30T17:01:15;6.73;;;4.07;;
15820;SDS011;8011;51.650;7.240;2022-10-30T17:03:40;7.93;;;4.33;;
15820;SDS011;8011;51.650;7.240;2022-10-30T17:06:23;8.07;;;4.43;;
15820;SDS011;8011;51.650;7.240;2022-10-30T17:09:05;9.20;;;4.43;;
15820;SDS011;8011;51.650;7.240;2022-10-30T17:12:02;9.10;;;4.53;;
15820;SDS011;8011;51.650;7.240;2022-10-30T17:14:29;7.60;;;4.50;;
15820;SDS011;8011;51.650;7.240;2022-10-30T17:22:43;6.40;;;4.00;;
15820;SDS011;8011;51.650;7.240;2022-10-30T17:25:29;8.53;;;4.63;;
15820;SDS011;8011;51.650;7.240;2022-10-30T17:28:01;9.80;;;4.00;;
15820;SDS011;8011;51.650;7.240;2022-10-30T17:30:37;9.90;;;4.60;;
15820;SDS011;8011;51.650;7.240;2022-10-30T17:35:48;8.13;;;4.63;;
15820;SDS011;8011;51.650;7.240;2022-10-30T17:38:15;7.73;;;4.90;;
15820;SDS011;8011;51.650;7.240;2022-10-30T17:40:40;8.37;;;5.53;;
15820;SDS011;8011;51.650;7.240;2022-10-30T17:43:08;7.43;;;4.23;;
15820;SDS011;8011;51.650;7.240;2022-10-30T17:45:38;7.23;;;4.27;;
15820;SDS011;8011;51.650;7.240;2022-10-30T17:48:08;6.30;;;4.17;;
15820;SDS011;8011;51.650;7.240;2022-10-30T17:50:40;6.90;;;4.23;;
15820;SDS011;8011;51.650;7.240;2022-10-30T17:53:08;6.13;;;4.10;;
15820;SDS011;8011;51.650;7.240;2022-10-30T17:55:39;7.63;;;4.30;;
15820;SDS011;8011;51.650;7.240;2022-10-30T17:58:05;7.00;;;5.37;;
15820;SDS011;8011;51.650;7.240;2022-10-30T18:00:31;8.37;;;4.73;;
15820;SDS011;8011;51.650;7.240;2022-10-30T18:02:57;6.90;;;4.30;;
15820;SDS011;8011;51.650;7.240;2022-10-30T18:05:23;8.00;;;4.17;;
15820;SDS011;8011;51.650;7.240;2022-10-30T18:07:51;7.63;;;4.70;;
15820;SDS011;8011;51.650;7.240;2022-10-30T18:10:17;7.00;;;4.53;;
15820;SDS011;8011;51.650;7.240;2022-10-30T18:12:43;6.93;;;4.43;;
15820;SDS011;8011;51.650;7.240;2022-10-30T18:15:32;8.90;;;5.00;;
15820;SDS011;8011;51.650;7.240;2022-10-30T18:18:05;7.00;;;4.60;;
15820;SDS011;8011;51.650;7.240;2022-10-30T18:20:31;8.60;;;4.80;;
15820;SDS011;8011;51.650;7.240;2022-10-30T18:22:58;9.07;;;4.83;;
15820;SDS011;8011;51.650;7.240;2022-10-30T18:25:25;6.70;;;4.50;;
15820;SDS011;8011;51.650;7.240;2022-10-30T18:27:54;7.30;;;4.40;;
15820;SDS011;8011;51.650;7.240;2022-10-30T18:30:20;8.20;;;4.57;;
15820;SDS011;8011;51.650;7.240;2022-10-30T18:32:46;8.97;;;4.63;;
15820;SDS011;8011;51.650;7.240;2022-10-30T18:35:13;6.83;;;5.67;;
15820;SDS011;8011;51.650;7.240;2022-10-30T18:37:39;11.07;;;7.63;;
15820;SDS011;8011;51.650;7.240;2022-10-30T18:40:05;8.50;;;5.40;;
15820;SDS011;8011;51.650;7.240;2022-10-30T18:42:31;8.33;;;5.63;;
15820;SDS011;8011;51.650;7.240;2022-10-30T18:44:57;10.70;;;5.97;;
15820;SDS011;8011;51.650;7.240;2022-10-30T18:47:23;8.73;;;6.27;;
15820;SDS011;8011;51.650;7.240;2022-10-30T18:49:48;8.83;;;6.03;;
15820;SDS011;8011;51.650;7.240;2022-10-30T18:52:14;8.17;;;5.40;;
15820;SDS011;8011;51.650;7.240;2022-10-30T18:54:39;11.03;;;6.10;;
15820;SDS011;8011;51.650;7.240;2022-10-30T18:57:05;11.87;;;6.37;;
15820;SDS011;8011;51.650;7.240;2022-10-30T18:59:31;10.63;;;5.40;;
15820;SDS011;8011;51.650;7.240;2022-10-30T19:01:56;8.70;;;6.30;;
15820;SDS011;8011;51.650;7.240;2022-10-30T19:04:22;10.70;;;5.90;;
15820;SDS011;8011;51.650;7.240;2022-10-30T19:06:48;10.20;;;6.00;;
15820;SDS011;8011;51.650;7.240;2022-10-30T19:09:13;10.60;;;5.80;;
15820;SDS011;8011;51.650;7.240;2022-10-30T19:11:39;8.83;;;5.30;;
15820;SDS011;8011;51.650;7.240;2022-10-30T19:14:11;8.23;;;5.13;;
15820;SDS011;8011;51.650;7.240;2022-10-30T19:16:37;11.03;;;6.10;;
15820;SDS011;8011;51.650;7.240;2022-10-30T19:19:03;7.57;;;5.03;;
15820;SDS011;8011;51.650;7.240;2022-10-30T19:21:29;9.17;;;4.57;;
15820;SDS011;8011;51.650;7.240;2022-10-30T19:23:58;8.87;;;4.77;;
15820;SDS011;8011;51.650;7.240;2022-10-30T19:26:32;7.63;;;5.30;;
15820;SDS011;8011;51.650;7.240;2022-10-30T19:28:58;7.67;;;5.07;;
15820;SDS011;8011;51.650;7.240;2022-10-30T19:31:24;6.83;;;4.33;;
15820;SDS011;8011;51.650;7.240;2022-10-30T19:33:49;9.50;;;4.63;;
15820;SDS011;8011;51.650;7.240;2022-10-30T19:36:24;10.50;;;5.30;;
15820;SDS011;8011;51.650;7.240;2022-10-30T19:38:55;7.80;;;5.33;;
15820;SDS011;8011;51.650;7.240;2022-10-30T19:41:21;8.30;;;4.63;;
15820;SDS011;8011;51.650;7.240;2022-10-30T19:43:48;7.27;;;4.93;;
15820;SDS011;8011;51.650;7.240;2022-10-30T19:46:14;6.97;;;5.07;;
15820;SDS011;8011;51.650;7.240;2022-10-30T19:48:39;7.73;;;4.83;;
15820;SDS011;8011;51.650;7.240;2022-10-30T19:51:05;7.27;;;5.37;;
15820;SDS011;8011;51.650;7.240;2022-10-30T19:53:33;7.70;;;4.93;;
15820;SDS011;8011;51.650;7.240;2022-10-30T19:55:59;7.87;;;5.50;;
15820;SDS011;8011;51.650;7.240;2022-10-30T19:58:25;8.67;;;4.60;;
15820;SDS011;8011;51.650;7.240;2022-10-30T20:00:50;5.57;;;4.50;;
15820;SDS011;8011;51.650;7.240;2022-10-30T20:03:18;5.80;;;5.20;;
15820;SDS011;8011;51.650;7.240;2022-10-30T20:05:44;8.07;;;5.90;;
15820;SDS011;8011;51.650;7.240;2022-10-30T20:08:19;11.33;;;6.00;;
15820;SDS011;8011;51.650;7.240;2022-10-30T20:10:53;8.70;;;5.70;;
15820;SDS011;8011;51.650;7.240;2022-10-30T20:13:21;9.37;;;5.40;;
15820;SDS011;8011;51.650;7.240;2022-10-30T20:15:48;7.97;;;5.93;;
15820;SDS011;8011;51.650;7.240;2022-10-30T20:18:24;12.53;;;6.13;;
15820;SDS011;8011;51.650;7.240;2022-10-30T20:20:57;10.20;;;6.23;;
15820;SDS011;8011;51.650;7.240;2022-10-30T20:23:24;11.23;;;5.97;;
15820;SDS011;8011;51.650;7.240;2022-10-30T20:25:51;11.07;;;7.20;;
15820;SDS011;8011;51.650;7.240;2022-10-30T20:28:20;11.67;;;7.07;;
15820;SDS011;8011;51.650;7.240;2022-10-30T20:30:54;8.97;;;6.63;;
15820;SDS011;8011;51.650;7.240;2022-10-30T20:33:20;11.47;;;5.93;;
15820;SDS011;8011;51.650;7.240;2022-10-30T20:35:47;9.93;;;6.57;;
15820;SDS011;8011;51.650;7.240;2022-10-30T20:40:45;10.40;;;6.97;;
15820;SDS011;8011;51.650;7.240;2022-10-30T20:43:16;9.87;;;6.30;;
15820;SDS011;8011;51.650;7.240;2022-10-30T20:45:44;10.70;;;6.60;;
15820;SDS011;8011;51.650;7.240;2022-10-30T20:48:11;12.87;;;6.87;;
15820;SDS011;8011;51.650;7.240;2022-10-30T20:50:37;9.97;;;6.30;;
15820;SDS011;8011;51.650;7.240;2022-10-30T20:53:04;10.23;;;6.97;;
15820;SDS011;8011;51.650;7.240;2022-10-30T20:55:32;11.07;;;6.87;;
15820;SDS011;8011;51.650;7.240;2022-10-30T20:57:59;10.17;;;6.80;;
15820;SDS011;8011;51.650;7.240;2022-10-30T21:00:25;10.97;;;6.83;;
15820;SDS011;8011;51.650;7.240;2022-10-30T21:02:50;10.27;;;6.90;;
15820;SDS011;8011;51.650;7.240;2022-10-30T21:05:16;15.07;;;9.33;;
15820;SDS011;8011;51.650;7.240;2022-10-30T21:07:42;16.20;;;9.43;;
15820;SDS011;8011;51.650;7.240;2022-10-30T21:10:08;28.23;;;15.57;;
15820;SDS011;8011;51.650;7.240;2022-10-30T21:12:33;25.33;;;15.13;;
15820;SDS011;8011;51.650;7.240;2022-10-30T21:14:59;26.83;;;16.23;;
15820;SDS011;8011;51.650;7.240;2022-10-30T21:17:26;23.47;;;12.80;;
15820;SDS011;8011;51.650;7.240;2022-10-30T21:19:52;20.13;;;11.90;;
15820;SDS011;8011;51.650;7.240;2022-10-30T21:22:18;17.43;;;9.73;;
15820;SDS011;8011;51.650;7.240;2022-10-30T21:24:44;13.23;;;8.47;;
15820;SDS011;8011;51.650;7.240;2022-10-30T21:27:09;13.53;;;7.67;;
15820;SDS011;8011;51.650;7.240;2022-10-30T21:29:35;10.30;;;7.13;;
15820;SDS011;8011;51.650;7.240;2022-10-30T21:32:01;13.13;;;7.37;;
15820;SDS011;8011;51.650;7.240;2022-10-30T21:34:26;9.27;;;6.80;;
15820;SDS011;8011;51.650;7.240;2022-10-30T21:36:52;8.57;;;7.00;;
15820;SDS011;8011;51.650;7.240;2022-10-30T21:39:18;11.23;;;7.07;;